sensor_id;sensor_type;location;lat;lon;timestamp;temperature;humidity
8979;DHT22;4524;51.364;5.448;2023-01-28T00:02:24;4.60;99.90
8979;DHT22;4524;51.364;5.448;2023-01-28T00:04:52;4.60;99.90
8979;DHT22;4524;51.364;5.448;2023-01-28T00:07:21;4.60;99.90
8979;DHT22;4524;51.364;5.448;2023-01-28T00:09:50;4.60;99.90
8979;DHT22;4524;51.364;5.448;2023-01-28T00:12:19;4.60;99.90
8979;DHT22;4524;51.364;5.448;2023-01-28T00:14:47;4.50;99.90
8979;DHT22;4524;51.364;5.448;2023-01-28T00:17:15;4.40;99.90
8979;DHT22;4524;51.364;5.448;2023-01-28T00:19:45;4.50;99.90
8979;DHT22;4524;51.364;5.448;2023-01-28T00:22:13;4.30;99.90
8979;DHT22;4524;51.364;5.448;2023-01-28T00:24:41;4.40;99.90
8979;DHT22;4524;51.364;5.448;2023-01-28T00:27:11;4.40;99.90
8979;DHT22;4524;51.364;5.448;2023-01-28T00:29:39;4.40;99.90
8979;DHT22;4524;51.364;5.448;2023-01-28T00:32:07;4.50;99.90
8979;DHT22;4524;51.364;5.448;2023-01-28T00:34:36;4.50;99.90
8979;DHT22;4524;51.364;5.448;2023-01-28T00:37:08;4.50;99.90
8979;DHT22;4524;51.364;5.448;2023-01-28T00:39:36;4.50;99.90
8979;DHT22;4524;51.364;5.448;2023-01-28T00:42:06;4.50;99.90
8979;DHT22;4524;51.364;5.448;2023-01-28T00:44:34;4.50;99.90
8979;DHT22;4524;51.364;5.448;2023-01-28T00:47:02;4.60;99.90
8979;DHT22;4524;51.364;5.448;2023-01-28T00:49:30;4.60;99.90
8979;DHT22;4524;51.364;5.448;2023-01-28T00:51:59;4.50;99.90
8979;DHT22;4524;51.364;5.448;2023-01-28T00:54:28;4.40;99.90
8979;DHT22;4524;51.364;5.448;2023-01-28T00:56:59;4.50;99.90
8979;DHT22;4524;51.364;5.448;2023-01-28T00:59:27;4.40;99.90
8979;DHT22;4524;51.364;5.448;2023-01-28T01:01:55;4.40;99.90
8979;DHT22;4524;51.364;5.448;2023-01-28T01:04:38;4.40;99.90
8979;DHT22;4524;51.364;5.448;2023-01-28T01:07:07;4.40;99.90
8979;DHT22;4524;51.364;5.448;2023-01-28T01:09:37;4.30;99.90
8979;DHT22;4524;51.364;5.448;2023-01-28T01:12:05;4.40;99.90
8979;DHT22;4524;51.364;5.448;2023-01-28T01:14:34;4.40;99.90
8979;DHT22;4524;51.364;5.448;2023-01-28T01:17:03;4.40;99.90
8979;DHT22;4524;51.364;5.448;2023-01-28T01:19:31;4.30;99.90
8979;DHT22;4524;51.364;5.448;2023-01-28T01:22:00;4.30;99.90
8979;DHT22;4524;51.364;5.448;2023-01-28T01:24:28;4.20;99.90
8979;DHT22;4524;51.364;5.448;2023-01-28T01:27:01;4.20;99.90
8979;DHT22;4524;51.364;5.448;2023-01-28T01:29:31;4.30;99.90
8979;DHT22;4524;51.364;5.448;2023-01-28T01:32:00;4.20;99.90
8979;DHT22;4524;51.364;5.448;2023-01-28T01:34:28;4.20;99.90
8979;DHT22;4524;51.364;5.448;2023-01-28T01:36:56;4.20;99.90
8979;DHT22;4524;51.364;5.448;2023-01-28T01:39:25;4.20;99.90
8979;DHT22;4524;51.364;5.448;2023-01-28T01:41:53;4.30;99.90
8979;DHT22;4524;51.364;5.448;2023-01-28T01:44:56;4.30;99.90
8979;DHT22;4524;51.364;5.448;2023-01-28T01:47:31;4.40;99.90
8979;DHT22;4524;51.364;5.448;2023-01-28T01:50:02;4.30;99.90
8979;DHT22;4524;51.364;5.448;2023-01-28T01:52:32;4.30;99.90
8979;DHT22;4524;51.364;5.448;2023-01-28T01:55:06;4.30;99.90
8979;DHT22;4524;51.364;5.448;2023-01-28T01:57:36;4.40;99.90
8979;DHT22;4524;51.364;5.448;2023-01-28T02:00:07;4.40;99.90
8979;DHT22;4524;51.364;5.448;2023-01-28T02:02:47;4.40;99.90
8979;DHT22;4524;51.364;5.448;2023-01-28T02:05:17;4.40;99.90
8979;DHT22;4524;51.364;5.448;2023-01-28T02:07:47;4.40;99.90
8979;DHT22;4524;51.364;5.448;2023-01-28T02:10:17;4.40;99.90
8979;DHT22;4524;51.364;5.448;2023-01-28T02:12:48;4.50;99.90
8979;DHT22;4524;51.364;5.448;2023-01-28T02:15:21;4.50;99.90
8979;DHT22;4524;51.364;5.448;2023-01-28T02:17:51;4.50;99.90
8979;DHT22;4524;51.364;5.448;2023-01-28T02:20:21;4.50;99.90
8979;DHT22;4524;51.364;5.448;2023-01-28T02:23:06;4.40;99.90
8979;DHT22;4524;51.364;5.448;2023-01-28T02:28:44;4.50;99.90
8979;DHT22;4524;51.364;5.448;2023-01-28T02:31:18;4.50;99.90
8979;DHT22;4524;51.364;5.448;2023-01-28T02:33:52;4.50;99.90
8979;DHT22;4524;51.364;5.448;2023-01-28T02:36:32;4.40;99.90
8979;DHT22;4524;51.364;5.448;2023-01-28T02:39:14;4.30;99.90
8979;DHT22;4524;51.364;5.448;2023-01-28T02:41:47;4.10;99.90
8979;DHT22;4524;51.364;5.448;2023-01-28T02:44:19;4.20;99.90
8979;DHT22;4524;51.364;5.448;2023-01-28T02:46:47;4.30;99.90
8979;DHT22;4524;51.364;5.448;2023-01-28T02:49:38;4.30;99.90
8979;DHT22;4524;51.364;5.448;2023-01-28T02:52:13;4.20;99.90
8979;DHT22;4524;51.364;5.448;2023-01-28T02:54:52;4.30;99.90
8979;DHT22;4524;51.364;5.448;2023-01-28T02:57:31;4.40;99.90
8979;DHT22;4524;51.364;5.448;2023-01-28T03:00:10;4.30;99.90
8979;DHT22;4524;51.364;5.448;2023-01-28T03:02:43;4.30;99.90
8979;DHT22;4524;51.364;5.448;2023-01-28T03:05:16;4.30;99.90
8979;DHT22;4524;51.364;5.448;2023-01-28T03:07:48;4.30;99.90
8979;DHT22;4524;51.364;5.448;2023-01-28T03:10:19;4.30;99.90
8979;DHT22;4524;51.364;5.448;2023-01-28T03:12:50;4.30;99.90
8979;DHT22;4524;51.364;5.448;2023-01-28T03:15:40;4.20;99.90
8979;DHT22;4524;51.364;5.448;2023-01-28T03:18:31;4.10;99.90
8979;DHT22;4524;51.364;5.448;2023-01-28T03:21:21;4.10;99.90
8979;DHT22;4524;51.364;5.448;2023-01-28T03:24:13;4.10;99.90
8979;DHT22;4524;51.364;5.448;2023-01-28T03:27:09;4.10;1.00
8979;DHT22;4524;51.364;5.448;2023-01-28T03:30:04;4.10;1.00
8979;DHT22;4524;51.364;5.448;2023-01-28T03:32:53;4.00;1.00
8979;DHT22;4524;51.364;5.448;2023-01-28T03:35:40;4.00;1.00
8979;DHT22;4524;51.364;5.448;2023-01-28T03:38:26;3.90;1.00
8979;DHT22;4524;51.364;5.448;2023-01-28T03:41:01;3.90;1.00
8979;DHT22;4524;51.364;5.448;2023-01-28T03:43:30;4.00;1.00
8979;DHT22;4524;51.364;5.448;2023-01-28T03:46:01;4.10;1.00
8979;DHT22;4524;51.364;5.448;2023-01-28T03:48:31;4.10;1.00
8979;DHT22;4524;51.364;5.448;2023-01-28T03:51:03;4.00;1.00
8979;DHT22;4524;51.364;5.448;2023-01-28T03:53:32;4.00;1.00
8979;DHT22;4524;51.364;5.448;2023-01-28T03:56:00;4.00;1.00
8979;DHT22;4524;51.364;5.448;2023-01-28T03:58:28;4.00;1.00
8979;DHT22;4524;51.364;5.448;2023-01-28T04:01:13;4.00;1.00
8979;DHT22;4524;51.364;5.448;2023-01-28T04:03:43;3.90;1.00
8979;DHT22;4524;51.364;5.448;2023-01-28T04:06:14;3.90;1.00
8979;DHT22;4524;51.364;5.448;2023-01-28T04:08:56;3.90;1.00
8979;DHT22;4524;51.364;5.448;2023-01-28T04:11:31;4.00;1.00
8979;DHT22;4524;51.364;5.448;2023-01-28T04:14:02;4.00;1.00
8979;DHT22;4524;51.364;5.448;2023-01-28T04:16:53;4.00;1.00
8979;DHT22;4524;51.364;5.448;2023-01-28T04:19:25;4.00;1.00
8979;DHT22;4524;51.364;5.448;2023-01-28T04:21:55;4.00;1.00
8979;DHT22;4524;51.364;5.448;2023-01-28T04:24:24;4.00;1.00
8979;DHT22;4524;51.364;5.448;2023-01-28T04:26:53;3.90;1.00
8979;DHT22;4524;51.364;5.448;2023-01-28T04:29:22;3.90;1.00
8979;DHT22;4524;51.364;5.448;2023-01-28T04:31:53;3.90;1.00
8979;DHT22;4524;51.364;5.448;2023-01-28T04:34:39;3.90;1.00
8979;DHT22;4524;51.364;5.448;2023-01-28T04:37:24;3.90;1.00
8979;DHT22;4524;51.364;5.448;2023-01-28T04:40:08;3.90;1.00
8979;DHT22;4524;51.364;5.448;2023-01-28T04:42:41;3.90;1.00
8979;DHT22;4524;51.364;5.448;2023-01-28T04:45:20;3.90;1.00
8979;DHT22;4524;51.364;5.448;2023-01-28T04:48:06;4.00;1.00
8979;DHT22;4524;51.364;5.448;2023-01-28T04:50:58;3.90;99.90
8979;DHT22;4524;51.364;5.448;2023-01-28T04:53:45;3.90;99.90
8979;DHT22;4524;51.364;5.448;2023-01-28T04:56:24;3.90;99.90
8979;DHT22;4524;51.364;5.448;2023-01-28T04:58:53;3.90;99.90
8979;DHT22;4524;51.364;5.448;2023-01-28T05:01:21;3.90;99.90
8979;DHT22;4524;51.364;5.448;2023-01-28T05:03:51;3.90;99.90
8979;DHT22;4524;51.364;5.448;2023-01-28T05:06:25;3.90;99.90
8979;DHT22;4524;51.364;5.448;2023-01-28T05:08:55;4.00;99.90
8979;DHT22;4524;51.364;5.448;2023-01-28T05:11:42;3.90;99.90
8979;DHT22;4524;51.364;5.448;2023-01-28T05:14:10;3.90;99.90
8979;DHT22;4524;51.364;5.448;2023-01-28T05:17:01;4.00;99.90
8979;DHT22;4524;51.364;5.448;2023-01-28T05:19:29;3.90;99.90
8979;DHT22;4524;51.364;5.448;2023-01-28T05:21:59;3.90;99.90
8979;DHT22;4524;51.364;5.448;2023-01-28T05:24:36;3.90;99.90
8979;DHT22;4524;51.364;5.448;2023-01-28T05:27:04;3.90;1.00
8979;DHT22;4524;51.364;5.448;2023-01-28T05:29:33;4.00;1.00
8979;DHT22;4524;51.364;5.448;2023-01-28T05:32:01;3.90;1.00
8979;DHT22;4524;51.364;5.448;2023-01-28T05:34:30;3.90;1.00
8979;DHT22;4524;51.364;5.448;2023-01-28T05:37:05;4.00;1.00
8979;DHT22;4524;51.364;5.448;2023-01-28T05:39:37;3.80;1.00
8979;DHT22;4524;51.364;5.448;2023-01-28T05:42:06;3.90;1.00
8979;DHT22;4524;51.364;5.448;2023-01-28T05:44:39;3.90;1.00
8979;DHT22;4524;51.364;5.448;2023-01-28T05:47:14;3.90;1.00
8979;DHT22;4524;51.364;5.448;2023-01-28T05:50:07;3.90;1.00
8979;DHT22;4524;51.364;5.448;2023-01-28T05:52:55;3.90;1.00
8979;DHT22;4524;51.364;5.448;2023-01-28T05:55:29;3.80;1.00
8979;DHT22;4524;51.364;5.448;2023-01-28T05:57:57;3.80;1.00
8979;DHT22;4524;51.364;5.448;2023-01-28T06:00:26;3.90;1.00
8979;DHT22;4524;51.364;5.448;2023-01-28T06:02:54;3.80;1.00
8979;DHT22;4524;51.364;5.448;2023-01-28T06:05:23;3.90;1.00
8979;DHT22;4524;51.364;5.448;2023-01-28T06:07:51;3.90;1.00
8979;DHT22;4524;51.364;5.448;2023-01-28T06:10:20;3.80;1.00
8979;DHT22;4524;51.364;5.448;2023-01-28T06:12:48;3.80;1.00
8979;DHT22;4524;51.364;5.448;2023-01-28T06:15:40;3.90;1.00
8979;DHT22;4524;51.364;5.448;2023-01-28T06:18:18;3.80;1.00
8979;DHT22;4524;51.364;5.448;2023-01-28T06:20:48;3.80;99.90
8979;DHT22;4524;51.364;5.448;2023-01-28T06:23:16;3.80;99.90
8979;DHT22;4524;51.364;5.448;2023-01-28T06:25:46;3.80;99.90
8979;DHT22;4524;51.364;5.448;2023-01-28T06:28:14;3.70;99.90
8979;DHT22;4524;51.364;5.448;2023-01-28T06:30:43;3.70;99.90
8979;DHT22;4524;51.364;5.448;2023-01-28T06:33:11;3.80;99.90
8979;DHT22;4524;51.364;5.448;2023-01-28T06:35:39;3.80;99.90
8979;DHT22;4524;51.364;5.448;2023-01-28T06:38:07;3.70;99.90
8979;DHT22;4524;51.364;5.448;2023-01-28T06:40:35;3.80;99.90
8979;DHT22;4524;51.364;5.448;2023-01-28T06:43:05;3.80;99.90
8979;DHT22;4524;51.364;5.448;2023-01-28T06:45:33;3.70;1.00
8979;DHT22;4524;51.364;5.448;2023-01-28T06:48:01;3.50;1.00
8979;DHT22;4524;51.364;5.448;2023-01-28T06:50:30;3.60;1.00
8979;DHT22;4524;51.364;5.448;2023-01-28T06:52:58;3.60;1.00
8979;DHT22;4524;51.364;5.448;2023-01-28T06:55:26;3.70;1.00
8979;DHT22;4524;51.364;5.448;2023-01-28T06:57:54;3.80;1.00
8979;DHT22;4524;51.364;5.448;2023-01-28T07:00:24;3.80;1.00
8979;DHT22;4524;51.364;5.448;2023-01-28T07:02:54;3.90;1.00
8979;DHT22;4524;51.364;5.448;2023-01-28T07:05:22;4.00;1.00
8979;DHT22;4524;51.364;5.448;2023-01-28T07:07:51;4.00;1.00
8979;DHT22;4524;51.364;5.448;2023-01-28T07:10:19;4.00;1.00
8979;DHT22;4524;51.364;5.448;2023-01-28T07:12:47;3.90;1.00
8979;DHT22;4524;51.364;5.448;2023-01-28T07:15:15;3.90;1.00
8979;DHT22;4524;51.364;5.448;2023-01-28T07:17:45;3.90;1.00
8979;DHT22;4524;51.364;5.448;2023-01-28T07:20:14;3.90;1.00
8979;DHT22;4524;51.364;5.448;2023-01-28T07:22:44;3.80;1.00
8979;DHT22;4524;51.364;5.448;2023-01-28T07:25:13;3.80;1.00
8979;DHT22;4524;51.364;5.448;2023-01-28T07:27:46;3.90;1.00
8979;DHT22;4524;51.364;5.448;2023-01-28T07:30:15;3.90;1.00
8979;DHT22;4524;51.364;5.448;2023-01-28T07:32:45;3.90;1.00
8979;DHT22;4524;51.364;5.448;2023-01-28T07:35:14;3.90;1.00
8979;DHT22;4524;51.364;5.448;2023-01-28T07:37:42;3.80;1.00
8979;DHT22;4524;51.364;5.448;2023-01-28T07:40:17;3.70;1.00
8979;DHT22;4524;51.364;5.448;2023-01-28T07:42:46;3.70;1.00
8979;DHT22;4524;51.364;5.448;2023-01-28T07:45:14;3.80;1.00
8979;DHT22;4524;51.364;5.448;2023-01-28T07:47:42;3.70;1.00
8979;DHT22;4524;51.364;5.448;2023-01-28T07:50:12;3.80;1.00
8979;DHT22;4524;51.364;5.448;2023-01-28T07:52:43;3.80;1.00
8979;DHT22;4524;51.364;5.448;2023-01-28T07:55:11;3.70;1.00
8979;DHT22;4524;51.364;5.448;2023-01-28T07:57:48;3.60;1.00
8979;DHT22;4524;51.364;5.448;2023-01-28T08:00:17;3.60;1.00
8979;DHT22;4524;51.364;5.448;2023-01-28T08:02:46;3.60;1.00
8979;DHT22;4524;51.364;5.448;2023-01-28T08:05:18;3.60;1.00
8979;DHT22;4524;51.364;5.448;2023-01-28T08:07:47;3.60;1.00
8979;DHT22;4524;51.364;5.448;2023-01-28T08:10:16;3.70;1.00
8979;DHT22;4524;51.364;5.448;2023-01-28T08:12:52;3.70;1.00
8979;DHT22;4524;51.364;5.448;2023-01-28T08:15:20;3.70;1.00
8979;DHT22;4524;51.364;5.448;2023-01-28T08:17:48;3.70;1.00
8979;DHT22;4524;51.364;5.448;2023-01-28T08:20:18;3.70;1.00
8979;DHT22;4524;51.364;5.448;2023-01-28T08:22:46;3.70;1.00
8979;DHT22;4524;51.364;5.448;2023-01-28T08:25:14;3.60;1.00
8979;DHT22;4524;51.364;5.448;2023-01-28T08:27:42;3.60;1.00
8979;DHT22;4524;51.364;5.448;2023-01-28T08:30:11;3.70;1.00
8979;DHT22;4524;51.364;5.448;2023-01-28T08:32:40;3.70;1.00
8979;DHT22;4524;51.364;5.448;2023-01-28T08:35:08;3.60;1.00
8979;DHT22;4524;51.364;5.448;2023-01-28T08:37:38;3.60;1.00
8979;DHT22;4524;51.364;5.448;2023-01-28T08:40:07;3.60;1.00
8979;DHT22;4524;51.364;5.448;2023-01-28T08:42:36;3.60;1.00
8979;DHT22;4524;51.364;5.448;2023-01-28T08:45:05;3.70;1.00
8979;DHT22;4524;51.364;5.448;2023-01-28T08:47:33;3.60;1.00
8979;DHT22;4524;51.364;5.448;2023-01-28T08:50:01;3.70;1.00
8979;DHT22;4524;51.364;5.448;2023-01-28T08:52:29;3.70;1.00
8979;DHT22;4524;51.364;5.448;2023-01-28T08:54:58;3.60;1.00
8979;DHT22;4524;51.364;5.448;2023-01-28T08:57:27;3.80;1.00
8979;DHT22;4524;51.364;5.448;2023-01-28T08:59:55;3.80;1.00
8979;DHT22;4524;51.364;5.448;2023-01-28T09:02:23;3.80;1.00
8979;DHT22;4524;51.364;5.448;2023-01-28T09:04:58;3.80;1.00
8979;DHT22;4524;51.364;5.448;2023-01-28T09:07:26;3.90;1.00
8979;DHT22;4524;51.364;5.448;2023-01-28T09:09:54;3.80;1.00
8979;DHT22;4524;51.364;5.448;2023-01-28T09:12:24;3.80;99.90
8979;DHT22;4524;51.364;5.448;2023-01-28T09:14:53;3.90;99.90
8979;DHT22;4524;51.364;5.448;2023-01-28T09:17:21;4.00;1.00
8979;DHT22;4524;51.364;5.448;2023-01-28T09:19:49;3.90;1.00
8979;DHT22;4524;51.364;5.448;2023-01-28T09:22:17;4.00;1.00
8979;DHT22;4524;51.364;5.448;2023-01-28T09:24:46;4.10;1.00
8979;DHT22;4524;51.364;5.448;2023-01-28T09:27:14;4.10;1.00
8979;DHT22;4524;51.364;5.448;2023-01-28T09:29:44;4.10;1.00
8979;DHT22;4524;51.364;5.448;2023-01-28T09:32:12;4.10;1.00
8979;DHT22;4524;51.364;5.448;2023-01-28T09:34:40;4.10;1.00
8979;DHT22;4524;51.364;5.448;2023-01-28T09:37:10;4.10;1.00
8979;DHT22;4524;51.364;5.448;2023-01-28T09:39:38;4.20;1.00
8979;DHT22;4524;51.364;5.448;2023-01-28T09:42:26;4.20;1.00
8979;DHT22;4524;51.364;5.448;2023-01-28T09:45:05;4.20;1.00
8979;DHT22;4524;51.364;5.448;2023-01-28T09:47:39;4.30;1.00
8979;DHT22;4524;51.364;5.448;2023-01-28T09:50:11;4.40;1.00
8979;DHT22;4524;51.364;5.448;2023-01-28T09:52:42;4.30;1.00
8979;DHT22;4524;51.364;5.448;2023-01-28T09:55:17;4.20;1.00
8979;DHT22;4524;51.364;5.448;2023-01-28T09:57:50;4.20;1.00
8979;DHT22;4524;51.364;5.448;2023-01-28T10:00:22;4.30;1.00
8979;DHT22;4524;51.364;5.448;2023-01-28T10:03:02;4.10;1.00
8979;DHT22;4524;51.364;5.448;2023-01-28T10:05:39;4.20;1.00
8979;DHT22;4524;51.364;5.448;2023-01-28T10:08:24;4.30;1.00
8979;DHT22;4524;51.364;5.448;2023-01-28T10:11:00;4.20;1.00
8979;DHT22;4524;51.364;5.448;2023-01-28T10:13:36;4.10;1.00
8979;DHT22;4524;51.364;5.448;2023-01-28T10:16:18;4.20;1.00
8979;DHT22;4524;51.364;5.448;2023-01-28T10:18:54;4.10;1.00
8979;DHT22;4524;51.364;5.448;2023-01-28T10:21:27;4.10;1.00
8979;DHT22;4524;51.364;5.448;2023-01-28T10:24:02;4.20;1.00
8979;DHT22;4524;51.364;5.448;2023-01-28T10:26:35;4.30;1.00
8979;DHT22;4524;51.364;5.448;2023-01-28T10:29:12;4.30;1.00
8979;DHT22;4524;51.364;5.448;2023-01-28T10:31:51;4.30;1.00
8979;DHT22;4524;51.364;5.448;2023-01-28T10:34:20;4.10;1.00
8979;DHT22;4524;51.364;5.448;2023-01-28T10:36:50;4.00;1.00
8979;DHT22;4524;51.364;5.448;2023-01-28T10:39:21;3.80;1.00
8979;DHT22;4524;51.364;5.448;2023-01-28T10:41:50;3.70;1.00
8979;DHT22;4524;51.364;5.448;2023-01-28T10:44:30;3.80;1.00
8979;DHT22;4524;51.364;5.448;2023-01-28T10:47:02;3.90;1.00
8979;DHT22;4524;51.364;5.448;2023-01-28T10:49:37;4.00;99.90
8979;DHT22;4524;51.364;5.448;2023-01-28T10:52:12;4.00;1.00
8979;DHT22;4524;51.364;5.448;2023-01-28T10:54:40;3.90;99.90
8979;DHT22;4524;51.364;5.448;2023-01-28T10:57:10;4.00;99.90
8979;DHT22;4524;51.364;5.448;2023-01-28T10:59:40;4.10;1.00
8979;DHT22;4524;51.364;5.448;2023-01-28T11:02:25;4.00;99.90
8979;DHT22;4524;51.364;5.448;2023-01-28T11:05:05;4.10;99.90
8979;DHT22;4524;51.364;5.448;2023-01-28T11:07:34;4.10;99.90
8979;DHT22;4524;51.364;5.448;2023-01-28T11:10:20;4.20;99.90
8979;DHT22;4524;51.364;5.448;2023-01-28T11:12:54;4.30;99.90
8979;DHT22;4524;51.364;5.448;2023-01-28T11:15:23;4.20;99.90
8979;DHT22;4524;51.364;5.448;2023-01-28T11:17:56;4.10;99.90
8979;DHT22;4524;51.364;5.448;2023-01-28T11:20:28;4.10;99.90
8979;DHT22;4524;51.364;5.448;2023-01-28T11:22:57;4.20;99.90
8979;DHT22;4524;51.364;5.448;2023-01-28T11:25:29;4.10;99.90
8979;DHT22;4524;51.364;5.448;2023-01-28T11:27:59;4.00;99.90
8979;DHT22;4524;51.364;5.448;2023-01-28T11:30:30;3.90;99.90
8979;DHT22;4524;51.364;5.448;2023-01-28T11:33:07;3.90;99.90
8979;DHT22;4524;51.364;5.448;2023-01-28T11:35:50;3.90;99.90
8979;DHT22;4524;51.364;5.448;2023-01-28T11:38:20;3.90;99.90
8979;DHT22;4524;51.364;5.448;2023-01-28T11:40:49;4.00;99.90
8979;DHT22;4524;51.364;5.448;2023-01-28T11:43:21;4.10;99.90
8979;DHT22;4524;51.364;5.448;2023-01-28T11:45:55;4.10;99.90
8979;DHT22;4524;51.364;5.448;2023-01-28T11:48:34;4.00;99.90
8979;DHT22;4524;51.364;5.448;2023-01-28T11:51:12;4.20;99.90
8979;DHT22;4524;51.364;5.448;2023-01-28T11:54:03;4.20;99.90
8979;DHT22;4524;51.364;5.448;2023-01-28T11:56:50;4.20;99.90
8979;DHT22;4524;51.364;5.448;2023-01-28T11:59:43;4.30;99.90
8979;DHT22;4524;51.364;5.448;2023-01-28T12:02:24;4.40;99.90
8979;DHT22;4524;51.364;5.448;2023-01-28T12:05:10;4.60;99.90
8979;DHT22;4524;51.364;5.448;2023-01-28T12:07:47;4.60;99.90
8979;DHT22;4524;51.364;5.448;2023-01-28T12:10:25;4.80;99.90
8979;DHT22;4524;51.364;5.448;2023-01-28T12:13:16;4.80;99.90
8979;DHT22;4524;51.364;5.448;2023-01-28T12:16:19;4.90;99.90
8979;DHT22;4524;51.364;5.448;2023-01-28T12:19:02;5.00;99.90
8979;DHT22;4524;51.364;5.448;2023-01-28T12:21:54;5.00;99.90
8979;DHT22;4524;51.364;5.448;2023-01-28T12:24:38;4.90;99.90
8979;DHT22;4524;51.364;5.448;2023-01-28T12:27:16;4.90;99.90
8979;DHT22;4524;51.364;5.448;2023-01-28T12:29:53;4.90;99.90
8979;DHT22;4524;51.364;5.448;2023-01-28T12:32:35;4.90;99.90
8979;DHT22;4524;51.364;5.448;2023-01-28T12:35:28;4.70;99.90
8979;DHT22;4524;51.364;5.448;2023-01-28T12:38:07;4.70;99.90
8979;DHT22;4524;51.364;5.448;2023-01-28T12:40:52;4.90;99.90
8979;DHT22;4524;51.364;5.448;2023-01-28T12:43:28;5.00;99.90
8979;DHT22;4524;51.364;5.448;2023-01-28T12:46:02;5.10;99.90
8979;DHT22;4524;51.364;5.448;2023-01-28T12:48:34;5.20;99.90
8979;DHT22;4524;51.364;5.448;2023-01-28T12:51:09;5.20;99.90
8979;DHT22;4524;51.364;5.448;2023-01-28T12:53:45;5.20;99.90
8979;DHT22;4524;51.364;5.448;2023-01-28T12:56:16;4.70;99.90
8979;DHT22;4524;51.364;5.448;2023-01-28T12:58:51;4.80;99.90
8979;DHT22;4524;51.364;5.448;2023-01-28T13:01:27;4.50;99.90
8979;DHT22;4524;51.364;5.448;2023-01-28T13:04:00;4.60;99.90
8979;DHT22;4524;51.364;5.448;2023-01-28T13:06:34;4.50;99.90
8979;DHT22;4524;51.364;5.448;2023-01-28T13:09:14;4.40;99.90
8979;DHT22;4524;51.364;5.448;2023-01-28T13:11:44;4.50;99.90
8979;DHT22;4524;51.364;5.448;2023-01-28T13:14:14;4.50;99.90
8979;DHT22;4524;51.364;5.448;2023-01-28T13:16:42;4.70;99.90
8979;DHT22;4524;51.364;5.448;2023-01-28T13:19:22;4.70;99.90
8979;DHT22;4524;51.364;5.448;2023-01-28T13:21:51;4.90;99.90
8979;DHT22;4524;51.364;5.448;2023-01-28T13:24:23;4.90;99.90
8979;DHT22;4524;51.364;5.448;2023-01-28T13:27:10;4.70;99.90
8979;DHT22;4524;51.364;5.448;2023-01-28T13:29:39;4.30;99.90
8979;DHT22;4524;51.364;5.448;2023-01-28T13:32:32;4.10;99.90
8979;DHT22;4524;51.364;5.448;2023-01-28T13:35:04;4.00;99.90
8979;DHT22;4524;51.364;5.448;2023-01-28T13:37:35;4.10;99.90
8979;DHT22;4524;51.364;5.448;2023-01-28T13:40:22;4.30;99.90
8979;DHT22;4524;51.364;5.448;2023-01-28T13:42:59;4.50;99.90
8979;DHT22;4524;51.364;5.448;2023-01-28T13:45:28;4.50;99.90
8979;DHT22;4524;51.364;5.448;2023-01-28T13:48:01;4.60;99.90
8979;DHT22;4524;51.364;5.448;2023-01-28T13:50:38;4.80;99.90
8979;DHT22;4524;51.364;5.448;2023-01-28T13:53:18;5.10;99.90
8979;DHT22;4524;51.364;5.448;2023-01-28T13:55:52;5.30;99.90
8979;DHT22;4524;51.364;5.448;2023-01-28T13:58:49;5.40;99.90
8979;DHT22;4524;51.364;5.448;2023-01-28T14:01:45;5.40;99.90
8979;DHT22;4524;51.364;5.448;2023-01-28T14:04:55;5.50;99.90
8979;DHT22;4524;51.364;5.448;2023-01-28T14:07:39;5.40;99.90
8979;DHT22;4524;51.364;5.448;2023-01-28T14:10:33;5.30;99.90
8979;DHT22;4524;51.364;5.448;2023-01-28T14:18:46;5.10;99.90
8979;DHT22;4524;51.364;5.448;2023-01-28T14:21:18;5.10;99.90
8979;DHT22;4524;51.364;5.448;2023-01-28T14:23:48;5.10;99.90
8979;DHT22;4524;51.364;5.448;2023-01-28T14:26:27;5.10;99.90
8979;DHT22;4524;51.364;5.448;2023-01-28T14:29:11;4.90;99.90
8979;DHT22;4524;51.364;5.448;2023-01-28T14:31:41;4.80;99.90
8979;DHT22;4524;51.364;5.448;2023-01-28T14:34:16;4.90;99.90
8979;DHT22;4524;51.364;5.448;2023-01-28T14:36:47;4.90;99.90
8979;DHT22;4524;51.364;5.448;2023-01-28T14:39:18;4.90;99.90
8979;DHT22;4524;51.364;5.448;2023-01-28T14:41:48;4.90;99.90
8979;DHT22;4524;51.364;5.448;2023-01-28T14:44:27;4.70;99.90
8979;DHT22;4524;51.364;5.448;2023-01-28T14:47:08;4.70;99.90
8979;DHT22;4524;51.364;5.448;2023-01-28T14:49:49;4.60;99.90
8979;DHT22;4524;51.364;5.448;2023-01-28T14:52:55;4.50;99.90
8979;DHT22;4524;51.364;5.448;2023-01-28T14:55:33;4.40;99.90
8979;DHT22;4524;51.364;5.448;2023-01-28T14:58:05;4.40;99.90
8979;DHT22;4524;51.364;5.448;2023-01-28T15:00:37;4.30;99.90
8979;DHT22;4524;51.364;5.448;2023-01-28T15:03:16;4.20;99.90
8979;DHT22;4524;51.364;5.448;2023-01-28T15:06:04;4.00;99.90
8979;DHT22;4524;51.364;5.448;2023-01-28T15:08:32;3.90;99.90
8979;DHT22;4524;51.364;5.448;2023-01-28T15:11:02;3.90;99.90
8979;DHT22;4524;51.364;5.448;2023-01-28T15:13:36;3.90;99.90
8979;DHT22;4524;51.364;5.448;2023-01-28T15:16:11;3.90;99.90
8979;DHT22;4524;51.364;5.448;2023-01-28T15:18:43;4.00;99.90
8979;DHT22;4524;51.364;5.448;2023-01-28T15:21:12;4.10;99.90
8979;DHT22;4524;51.364;5.448;2023-01-28T15:23:42;4.10;99.90
8979;DHT22;4524;51.364;5.448;2023-01-28T15:26:16;4.20;99.90
8979;DHT22;4524;51.364;5.448;2023-01-28T15:28:45;4.20;99.90
8979;DHT22;4524;51.364;5.448;2023-01-28T15:31:23;4.30;99.90
8979;DHT22;4524;51.364;5.448;2023-01-28T15:33:59;4.40;99.90
8979;DHT22;4524;51.364;5.448;2023-01-28T15:36:28;4.40;99.90
8979;DHT22;4524;51.364;5.448;2023-01-28T15:38:57;4.40;99.90
8979;DHT22;4524;51.364;5.448;2023-01-28T15:41:28;4.40;99.90
8979;DHT22;4524;51.364;5.448;2023-01-28T15:43:57;4.40;99.90
8979;DHT22;4524;51.364;5.448;2023-01-28T15:46:27;4.40;99.90
8979;DHT22;4524;51.364;5.448;2023-01-28T15:48:58;4.40;99.90
8979;DHT22;4524;51.364;5.448;2023-01-28T15:51:28;4.30;99.90
8979;DHT22;4524;51.364;5.448;2023-01-28T15:54:02;4.20;99.90
8979;DHT22;4524;51.364;5.448;2023-01-28T15:56:31;4.20;99.90
8979;DHT22;4524;51.364;5.448;2023-01-28T15:59:15;4.20;99.90
8979;DHT22;4524;51.364;5.448;2023-01-28T16:01:45;4.30;99.90
8979;DHT22;4524;51.364;5.448;2023-01-28T16:04:24;4.30;99.90
8979;DHT22;4524;51.364;5.448;2023-01-28T16:06:53;4.50;99.90
8979;DHT22;4524;51.364;5.448;2023-01-28T16:09:25;4.40;99.90
8979;DHT22;4524;51.364;5.448;2023-01-28T16:12:01;4.50;99.90
8979;DHT22;4524;51.364;5.448;2023-01-28T16:14:32;4.50;99.90
8979;DHT22;4524;51.364;5.448;2023-01-28T16:17:03;4.50;99.90
8979;DHT22;4524;51.364;5.448;2023-01-28T16:19:36;4.30;1.00
8979;DHT22;4524;51.364;5.448;2023-01-28T16:22:06;4.30;1.00
8979;DHT22;4524;51.364;5.448;2023-01-28T16:24:35;4.10;1.00
8979;DHT22;4524;51.364;5.448;2023-01-28T16:27:05;4.10;1.00
8979;DHT22;4524;51.364;5.448;2023-01-28T16:29:34;3.90;1.00
8979;DHT22;4524;51.364;5.448;2023-01-28T16:32:27;3.80;1.00
8979;DHT22;4524;51.364;5.448;2023-01-28T16:34:56;3.60;1.00
8979;DHT22;4524;51.364;5.448;2023-01-28T16:37:24;3.60;1.00
8979;DHT22;4524;51.364;5.448;2023-01-28T16:39:57;3.50;1.00
8979;DHT22;4524;51.364;5.448;2023-01-28T16:42:28;3.50;1.00
8979;DHT22;4524;51.364;5.448;2023-01-28T16:44:58;3.40;1.00
8979;DHT22;4524;51.364;5.448;2023-01-28T16:47:27;3.30;1.00
8979;DHT22;4524;51.364;5.448;2023-01-28T16:49:56;3.20;1.00
8979;DHT22;4524;51.364;5.448;2023-01-28T16:52:24;3.20;1.00
8979;DHT22;4524;51.364;5.448;2023-01-28T16:54:52;3.30;1.00
8979;DHT22;4524;51.364;5.448;2023-01-28T16:57:20;3.10;99.90
8979;DHT22;4524;51.364;5.448;2023-01-28T16:59:49;3.10;99.90
8979;DHT22;4524;51.364;5.448;2023-01-28T17:02:17;3.00;99.90
8979;DHT22;4524;51.364;5.448;2023-01-28T17:04:47;2.90;99.90
8979;DHT22;4524;51.364;5.448;2023-01-28T17:07:15;2.80;99.90
8979;DHT22;4524;51.364;5.448;2023-01-28T17:09:43;2.80;99.90
8979;DHT22;4524;51.364;5.448;2023-01-28T17:12:11;2.70;99.90
8979;DHT22;4524;51.364;5.448;2023-01-28T17:14:39;2.70;99.90
8979;DHT22;4524;51.364;5.448;2023-01-28T17:17:07;2.50;99.90